SWA4157 KSAT-KELP
Flight info
| Callsign | SWA4157 |
|---|---|
| Flight time | 1h 18m |
| Altitude | 40000 |
| Route | ALISS7 ALISS FST TXSAS BEAHR3 |
| Aircraft | B738/M-SADE2E3GIJ4RWZ/LB1D1 |
Departure
| Time | 2026-04-26 11:00 |
|---|---|
| Airport | San Antonio International Airport (KSAT) |
Arrival
| Time | 2026-04-26 12:19 |
|---|---|
| Airport | El Paso International Airport (KELP) |
| Time | Latitude | Longitude | Altitude | Speed | Heading |
|---|---|---|---|---|---|
| 2026-04-26 10:29 | 29.52701 | -98.46987 | 797 ft | 0 kts | 310° |
| 2026-04-26 10:54 | 29.52695 | -98.46980 | 797 ft | 4 kts | 310° |
| 2026-04-26 10:54 | 29.52679 | -98.46955 | 797 ft | 4 kts | 301° |
| 2026-04-26 10:54 | 29.52668 | -98.46928 | 797 ft | 4 kts | 277° |
| 2026-04-26 10:55 | 29.52672 | -98.46904 | 797 ft | 2 kts | 221° |
| 2026-04-26 10:55 | 29.52673 | -98.46903 | 797 ft | 2 kts | 220° |
| 2026-04-26 10:58 | 29.52672 | -98.46904 | 797 ft | 1 kts | 220° |
| 2026-04-26 10:58 | 29.52633 | -98.46919 | 799 ft | 11 kts | 175° |
| 2026-04-26 10:58 | 29.52536 | -98.46948 | 797 ft | 17 kts | 219° |
| 2026-04-26 10:59 | 29.52446 | -98.47038 | 797 ft | 15 kts | 221° |
| 2026-04-26 10:59 | 29.52365 | -98.47026 | 797 ft | 11 kts | 134° |
| 2026-04-26 10:59 | 29.52353 | -98.46963 | 797 ft | 10 kts | 52° |
| 2026-04-26 10:59 | 29.52524 | -98.46793 | 797 ft | 69 kts | 40° |
| 2026-04-26 11:00 | 29.53080 | -98.46245 | 797 ft | 139 kts | 40° |
| 2026-04-26 11:00 | 29.53935 | -98.45400 | 1119 ft | 169 kts | 43° |
| 2026-04-26 11:00 | 29.54793 | -98.44476 | 1934 ft | 176 kts | 46° |
| 2026-04-26 11:00 | 29.55736 | -98.43446 | 2390 ft | 198 kts | 42° |
| 2026-04-26 11:01 | 29.57068 | -98.42782 | 2596 ft | 224 kts | 1° |
| 2026-04-26 11:01 | 29.58588 | -98.43268 | 2776 ft | 241 kts | 326° |
| 2026-04-26 11:01 | 29.59955 | -98.44502 | 3017 ft | 261 kts | 314° |
| 2026-04-26 11:01 | 29.61280 | -98.46003 | 3573 ft | 271 kts | 312° |
| 2026-04-26 11:02 | 29.62615 | -98.47570 | 4248 ft | 278 kts | 312° |
| 2026-04-26 11:02 | 29.63984 | -98.49170 | 4967 ft | 282 kts | 313° |
| 2026-04-26 11:02 | 29.65360 | -98.50763 | 5813 ft | 279 kts | 314° |
| 2026-04-26 11:02 | 29.66720 | -98.52326 | 6784 ft | 274 kts | 314° |
| 2026-04-26 11:03 | 29.68071 | -98.53871 | 7756 ft | 275 kts | 315° |
| 2026-04-26 11:03 | 29.69444 | -98.55436 | 8629 ft | 280 kts | 315° |
| 2026-04-26 11:03 | 29.70830 | -98.57016 | 9579 ft | 282 kts | 315° |
| 2026-04-26 11:03 | 29.72230 | -98.58608 | 10468 ft | 285 kts | 315° |
| 2026-04-26 11:04 | 29.73648 | -98.60218 | 11307 ft | 288 kts | 315° |
| 2026-04-26 11:04 | 29.75087 | -98.61851 | 12145 ft | 292 kts | 315° |
| 2026-04-26 11:04 | 29.76541 | -98.63503 | 13003 ft | 295 kts | 314° |
| 2026-04-26 11:04 | 29.78009 | -98.65177 | 13845 ft | 298 kts | 313° |
| 2026-04-26 11:05 | 29.79391 | -98.66964 | 14635 ft | 300 kts | 308° |
| 2026-04-26 11:05 | 29.80710 | -98.68836 | 15434 ft | 303 kts | 307° |
| 2026-04-26 11:05 | 29.82029 | -98.70740 | 16244 ft | 305 kts | 307° |
| 2026-04-26 11:05 | 29.83361 | -98.72657 | 17033 ft | 308 kts | 307° |
| 2026-04-26 11:06 | 29.84719 | -98.74592 | 17820 ft | 312 kts | 307° |
| 2026-04-26 11:06 | 29.85626 | -98.75881 | 18307 ft | 314 kts | 307° |
| 2026-04-26 11:06 | 29.87478 | -98.78502 | 19285 ft | 316 kts | 307° |
| 2026-04-26 11:06 | 29.88864 | -98.80463 | 20061 ft | 316 kts | 306° |
| 2026-04-26 11:07 | 29.90254 | -98.82424 | 20808 ft | 316 kts | 306° |
| 2026-04-26 11:07 | 29.91650 | -98.84392 | 21535 ft | 318 kts | 306° |
| 2026-04-26 11:07 | 29.93054 | -98.86371 | 22241 ft | 320 kts | 306° |
| 2026-04-26 11:07 | 29.94445 | -98.88333 | 22954 ft | 321 kts | 306° |
| 2026-04-26 11:08 | 29.95861 | -98.90332 | 23608 ft | 323 kts | 306° |
| 2026-04-26 11:08 | 29.97285 | -98.92343 | 24193 ft | 324 kts | 306° |
| 2026-04-26 11:08 | 29.98712 | -98.94359 | 24809 ft | 325 kts | 306° |
| 2026-04-26 11:08 | 30.00140 | -98.96380 | 25407 ft | 325 kts | 305° |
| 2026-04-26 11:09 | 30.01575 | -98.98409 | 25976 ft | 326 kts | 305° |
| 2026-04-26 11:09 | 30.03009 | -99.00441 | 26574 ft | 326 kts | 305° |
| 2026-04-26 11:09 | 30.04436 | -99.02460 | 27308 ft | 322 kts | 305° |
| 2026-04-26 11:09 | 30.05837 | -99.04443 | 28105 ft | 316 kts | 305° |
| 2026-04-26 11:10 | 30.07215 | -99.06395 | 28823 ft | 312 kts | 304° |
| 2026-04-26 11:10 | 30.08582 | -99.08334 | 29479 ft | 310 kts | 304° |
| 2026-04-26 11:10 | 30.09916 | -99.10261 | 30132 ft | 305 kts | 300° |
| 2026-04-26 11:10 | 30.11002 | -99.12349 | 30545 ft | 305 kts | 294° |
| 2026-04-26 11:11 | 30.12505 | -99.17092 | 30722 ft | 326 kts | 285° |
| 2026-04-26 11:11 | 30.13108 | -99.19663 | 30803 ft | 337 kts | 284° |
| 2026-04-26 11:11 | 30.13716 | -99.22319 | 30884 ft | 347 kts | 284° |
| 2026-04-26 11:12 | 30.14982 | -99.27868 | 31027 ft | 366 kts | 284° |
| 2026-04-26 11:12 | 30.16323 | -99.33693 | 31151 ft | 384 kts | 284° |
| 2026-04-26 11:13 | 30.17721 | -99.39737 | 31255 ft | 399 kts | 284° |
| 2026-04-26 11:13 | 30.18444 | -99.42859 | 31361 ft | 404 kts | 284° |
| 2026-04-26 11:13 | 30.19173 | -99.46007 | 31572 ft | 406 kts | 284° |
| 2026-04-26 11:14 | 30.19901 | -99.49156 | 31907 ft | 404 kts | 284° |
| 2026-04-26 11:14 | 30.20623 | -99.52281 | 32330 ft | 401 kts | 284° |
| 2026-04-26 11:14 | 30.21339 | -99.55381 | 32741 ft | 398 kts | 284° |
| 2026-04-26 11:14 | 30.21810 | -99.57425 | 32983 ft | 397 kts | 284° |
| 2026-04-26 11:15 | 30.22520 | -99.60507 | 33319 ft | 396 kts | 284° |
| 2026-04-26 11:15 | 30.23226 | -99.63575 | 33659 ft | 395 kts | 284° |
| 2026-04-26 11:15 | 30.23929 | -99.66635 | 33995 ft | 393 kts | 284° |
| 2026-04-26 11:15 | 30.24627 | -99.69678 | 34311 ft | 391 kts | 284° |
| 2026-04-26 11:16 | 30.25324 | -99.72716 | 34586 ft | 390 kts | 284° |
| 2026-04-26 11:16 | 30.26016 | -99.75739 | 34867 ft | 389 kts | 284° |
| 2026-04-26 11:16 | 30.26707 | -99.78755 | 35159 ft | 387 kts | 284° |
| 2026-04-26 11:16 | 30.27394 | -99.81762 | 35449 ft | 386 kts | 284° |
| 2026-04-26 11:17 | 30.28079 | -99.84766 | 35717 ft | 385 kts | 284° |
| 2026-04-26 11:17 | 30.28760 | -99.87753 | 36003 ft | 384 kts | 284° |
| 2026-04-26 11:17 | 30.29438 | -99.90730 | 36281 ft | 382 kts | 284° |
| 2026-04-26 11:17 | 30.30113 | -99.93705 | 36547 ft | 382 kts | 284° |
| 2026-04-26 11:18 | 30.30787 | -99.96669 | 36803 ft | 381 kts | 284° |
| 2026-04-26 11:18 | 30.31459 | -99.99630 | 37060 ft | 380 kts | 284° |
| 2026-04-26 11:18 | 30.32120 | -100.02546 | 37324 ft | 378 kts | 284° |
| 2026-04-26 11:18 | 30.32786 | -100.05490 | 37581 ft | 377 kts | 284° |
| 2026-04-26 11:19 | 30.33449 | -100.08422 | 37788 ft | 377 kts | 284° |
| 2026-04-26 11:19 | 30.34111 | -100.11352 | 38017 ft | 376 kts | 284° |
| 2026-04-26 11:19 | 30.34770 | -100.14276 | 38245 ft | 375 kts | 284° |
| 2026-04-26 11:19 | 30.35428 | -100.17199 | 38468 ft | 374 kts | 284° |
| 2026-04-26 11:20 | 30.36085 | -100.20111 | 38633 ft | 374 kts | 284° |
| 2026-04-26 11:20 | 30.36739 | -100.23021 | 38785 ft | 374 kts | 284° |
| 2026-04-26 11:20 | 30.37394 | -100.25938 | 38913 ft | 375 kts | 284° |
| 2026-04-26 11:20 | 30.38050 | -100.28863 | 39055 ft | 375 kts | 284° |
| 2026-04-26 11:21 | 30.38703 | -100.31779 | 39223 ft | 374 kts | 284° |
| 2026-04-26 11:21 | 30.39357 | -100.34696 | 39370 ft | 375 kts | 284° |
| 2026-04-26 11:21 | 30.40011 | -100.37621 | 39517 ft | 375 kts | 284° |
| 2026-04-26 11:21 | 30.40663 | -100.40542 | 39666 ft | 375 kts | 283° |
| 2026-04-26 11:22 | 30.41315 | -100.43465 | 39782 ft | 375 kts | 283° |
| 2026-04-26 11:22 | 30.41967 | -100.46391 | 39814 ft | 376 kts | 283° |
| 2026-04-26 11:22 | 30.43272 | -100.52259 | 39848 ft | 375 kts | 283° |
| 2026-04-26 11:23 | 30.44574 | -100.58121 | 39866 ft | 375 kts | 283° |
| 2026-04-26 11:23 | 30.45862 | -100.63939 | 39877 ft | 375 kts | 283° |
| 2026-04-26 11:24 | 30.47158 | -100.69804 | 39884 ft | 376 kts | 283° |
| 2026-04-26 11:24 | 30.48451 | -100.75670 | 39877 ft | 375 kts | 283° |
| 2026-04-26 11:25 | 30.49742 | -100.81540 | 39862 ft | 375 kts | 283° |
| 2026-04-26 11:25 | 30.51029 | -100.87405 | 39839 ft | 375 kts | 283° |
| 2026-04-26 11:26 | 30.52315 | -100.93281 | 39814 ft | 376 kts | 283° |
| 2026-04-26 11:26 | 30.53598 | -100.99153 | 39804 ft | 375 kts | 283° |
| 2026-04-26 11:27 | 30.54877 | -101.05021 | 39821 ft | 375 kts | 283° |
| 2026-04-26 11:27 | 30.56154 | -101.10894 | 39839 ft | 375 kts | 283° |
| 2026-04-26 11:28 | 30.57427 | -101.16763 | 39857 ft | 375 kts | 283° |
| 2026-04-26 11:28 | 30.58697 | -101.22631 | 39857 ft | 375 kts | 282° |
| 2026-04-26 11:29 | 30.59963 | -101.28495 | 39858 ft | 374 kts | 282° |
| 2026-04-26 11:29 | 30.61217 | -101.34313 | 39826 ft | 373 kts | 281° |
| 2026-04-26 11:30 | 30.62269 | -101.39210 | 39825 ft | 373 kts | 281° |
| 2026-04-26 11:30 | 30.63727 | -101.46011 | 39810 ft | 373 kts | 281° |
| 2026-04-26 11:31 | 30.64979 | -101.51864 | 39789 ft | 373 kts | 281° |
| 2026-04-26 11:31 | 30.66228 | -101.57721 | 39766 ft | 374 kts | 281° |
| 2026-04-26 11:32 | 30.67476 | -101.63583 | 39746 ft | 374 kts | 281° |
| 2026-04-26 11:32 | 30.68720 | -101.69441 | 39747 ft | 374 kts | 281° |
| 2026-04-26 11:33 | 30.69963 | -101.75306 | 39747 ft | 374 kts | 281° |
| 2026-04-26 11:33 | 30.71194 | -101.81131 | 39746 ft | 374 kts | 281° |
| 2026-04-26 11:34 | 30.72432 | -101.87000 | 39747 ft | 374 kts | 281° |
| 2026-04-26 11:34 | 30.73666 | -101.92866 | 39745 ft | 374 kts | 281° |
| 2026-04-26 11:35 | 30.74897 | -101.98734 | 39747 ft | 373 kts | 281° |
| 2026-04-26 11:35 | 30.75927 | -102.03650 | 39750 ft | 373 kts | 281° |
| 2026-04-26 11:36 | 30.77351 | -102.10469 | 39744 ft | 373 kts | 281° |
| 2026-04-26 11:36 | 30.78573 | -102.16332 | 39747 ft | 373 kts | 281° |
| 2026-04-26 11:37 | 30.79790 | -102.22191 | 39743 ft | 373 kts | 281° |
| 2026-04-26 11:37 | 30.81004 | -102.28044 | 39746 ft | 372 kts | 280° |
| 2026-04-26 11:38 | 30.82215 | -102.33899 | 39745 ft | 372 kts | 280° |
| 2026-04-26 11:38 | 30.83413 | -102.39707 | 39745 ft | 372 kts | 280° |
| 2026-04-26 11:39 | 30.84617 | -102.45553 | 39749 ft | 371 kts | 280° |
| 2026-04-26 11:39 | 30.85816 | -102.51392 | 39755 ft | 370 kts | 280° |
| 2026-04-26 11:40 | 30.87010 | -102.57221 | 39778 ft | 370 kts | 280° |
| 2026-04-26 11:40 | 30.88201 | -102.63050 | 39812 ft | 370 kts | 280° |
| 2026-04-26 11:42 | 30.92929 | -102.86334 | 39886 ft | 369 kts | 280° |
| 2026-04-26 11:43 | 30.94094 | -102.92104 | 39887 ft | 368 kts | 279° |
| 2026-04-26 11:43 | 30.95326 | -102.97895 | 39891 ft | 370 kts | 283° |
| 2026-04-26 11:44 | 30.97216 | -103.03499 | 39874 ft | 372 kts | 287° |
| 2026-04-26 11:44 | 30.99181 | -103.09070 | 39839 ft | 372 kts | 287° |
| 2026-04-26 11:45 | 31.01135 | -103.14649 | 39816 ft | 371 kts | 287° |
| 2026-04-26 11:45 | 31.03078 | -103.20227 | 39792 ft | 371 kts | 287° |
| 2026-04-26 11:46 | 31.05010 | -103.25797 | 39762 ft | 370 kts | 287° |
| 2026-04-26 11:46 | 31.06936 | -103.31361 | 39746 ft | 370 kts | 287° |
| 2026-04-26 11:47 | 31.08855 | -103.36918 | 39769 ft | 369 kts | 286° |
| 2026-04-26 11:47 | 31.10769 | -103.42467 | 39781 ft | 368 kts | 286° |
| 2026-04-26 11:48 | 31.12679 | -103.48014 | 39798 ft | 368 kts | 286° |
| 2026-04-26 11:48 | 31.14582 | -103.53547 | 39807 ft | 367 kts | 286° |
| 2026-04-26 11:49 | 31.16480 | -103.59077 | 39812 ft | 367 kts | 286° |
| 2026-04-26 11:49 | 31.18370 | -103.64595 | 39811 ft | 366 kts | 286° |
| 2026-04-26 11:50 | 31.20246 | -103.70077 | 39806 ft | 365 kts | 286° |
| 2026-04-26 11:50 | 31.22128 | -103.75588 | 39794 ft | 365 kts | 286° |
| 2026-04-26 11:51 | 31.24006 | -103.81096 | 39785 ft | 365 kts | 286° |
| 2026-04-26 11:51 | 31.25884 | -103.86613 | 39765 ft | 365 kts | 286° |
| 2026-04-26 11:52 | 31.27442 | -103.91197 | 39752 ft | 365 kts | 286° |
| 2026-04-26 11:52 | 31.29632 | -103.97652 | 39754 ft | 366 kts | 286° |
| 2026-04-26 11:53 | 31.31510 | -104.03195 | 39757 ft | 367 kts | 286° |
| 2026-04-26 11:54 | 31.34329 | -104.11537 | 39762 ft | 368 kts | 286° |
| 2026-04-26 11:54 | 31.36212 | -104.17118 | 39767 ft | 369 kts | 286° |
| 2026-04-26 11:55 | 31.38091 | -104.22699 | 39769 ft | 369 kts | 285° |
| 2026-04-26 11:55 | 31.39970 | -104.28288 | 39768 ft | 369 kts | 285° |
| 2026-04-26 11:56 | 31.41827 | -104.33822 | 39763 ft | 367 kts | 285° |
| 2026-04-26 11:56 | 31.43694 | -104.39397 | 39362 ft | 369 kts | 285° |
| 2026-04-26 11:56 | 31.44626 | -104.42176 | 38847 ft | 365 kts | 285° |
| 2026-04-26 11:57 | 31.45367 | -104.44992 | 38226 ft | 359 kts | 276° |
| 2026-04-26 11:57 | 31.45686 | -104.47868 | 37573 ft | 355 kts | 273° |
| 2026-04-26 11:57 | 31.45946 | -104.50738 | 36925 ft | 354 kts | 273° |
| 2026-04-26 11:57 | 31.46218 | -104.53596 | 36294 ft | 353 kts | 273° |
| 2026-04-26 11:58 | 31.46504 | -104.56456 | 35655 ft | 353 kts | 274° |
| 2026-04-26 11:58 | 31.46801 | -104.59320 | 34964 ft | 355 kts | 274° |
| 2026-04-26 11:58 | 31.47103 | -104.62201 | 34270 ft | 358 kts | 274° |
| 2026-04-26 11:58 | 31.47409 | -104.65117 | 33483 ft | 363 kts | 274° |
| 2026-04-26 11:59 | 31.47717 | -104.68066 | 32689 ft | 366 kts | 273° |
| 2026-04-26 11:59 | 31.48025 | -104.71011 | 32172 ft | 363 kts | 273° |
| 2026-04-26 11:59 | 31.48331 | -104.73941 | 31628 ft | 362 kts | 273° |
| 2026-04-26 11:59 | 31.48637 | -104.76896 | 31118 ft | 369 kts | 272° |
| 2026-04-26 12:00 | 31.48947 | -104.79907 | 30577 ft | 372 kts | 272° |
| 2026-04-26 12:00 | 31.49256 | -104.82903 | 30045 ft | 369 kts | 272° |
| 2026-04-26 12:00 | 31.49563 | -104.85876 | 29446 ft | 366 kts | 272° |
| 2026-04-26 12:00 | 31.49866 | -104.88821 | 28859 ft | 362 kts | 272° |
| 2026-04-26 12:01 | 31.50162 | -104.91735 | 28324 ft | 358 kts | 272° |
| 2026-04-26 12:01 | 31.50457 | -104.94615 | 27782 ft | 354 kts | 272° |
| 2026-04-26 12:01 | 31.50747 | -104.97463 | 27260 ft | 350 kts | 272° |
| 2026-04-26 12:01 | 31.51033 | -105.00291 | 26733 ft | 348 kts | 272° |
| 2026-04-26 12:02 | 31.51321 | -105.03085 | 26222 ft | 343 kts | 272° |
| 2026-04-26 12:02 | 31.51513 | -105.04915 | 25896 ft | 340 kts | 272° |
| 2026-04-26 12:02 | 31.51880 | -105.08567 | 25232 ft | 336 kts | 272° |
| 2026-04-26 12:02 | 31.52058 | -105.10363 | 24923 ft | 338 kts | 272° |
| 2026-04-26 12:03 | 31.52332 | -105.13136 | 24423 ft | 347 kts | 272° |
| 2026-04-26 12:03 | 31.52612 | -105.15962 | 23876 ft | 349 kts | 273° |
| 2026-04-26 12:03 | 31.52893 | -105.18775 | 23355 ft | 347 kts | 273° |
| 2026-04-26 12:03 | 31.53174 | -105.21574 | 22766 ft | 345 kts | 273° |
| 2026-04-26 12:04 | 31.53451 | -105.24352 | 22217 ft | 341 kts | 273° |
| 2026-04-26 12:04 | 31.53726 | -105.27099 | 21694 ft | 338 kts | 273° |
| 2026-04-26 12:04 | 31.53997 | -105.29824 | 21191 ft | 335 kts | 273° |
| 2026-04-26 12:04 | 31.54263 | -105.32523 | 20694 ft | 332 kts | 273° |
| 2026-04-26 12:05 | 31.54528 | -105.35200 | 20204 ft | 329 kts | 273° |
| 2026-04-26 12:05 | 31.54790 | -105.37858 | 19722 ft | 327 kts | 273° |
| 2026-04-26 12:05 | 31.55050 | -105.40500 | 19235 ft | 325 kts | 273° |
| 2026-04-26 12:05 | 31.55306 | -105.43123 | 18742 ft | 323 kts | 273° |
| 2026-04-26 12:06 | 31.55561 | -105.45734 | 18254 ft | 322 kts | 273° |
| 2026-04-26 12:06 | 31.55814 | -105.48341 | 17742 ft | 321 kts | 273° |
| 2026-04-26 12:06 | 31.56066 | -105.50928 | 17249 ft | 318 kts | 274° |
| 2026-04-26 12:06 | 31.56317 | -105.53494 | 16755 ft | 315 kts | 274° |
| 2026-04-26 12:07 | 31.56566 | -105.56040 | 16286 ft | 313 kts | 274° |
| 2026-04-26 12:07 | 31.56809 | -105.58535 | 15826 ft | 311 kts | 274° |
| 2026-04-26 12:07 | 31.57051 | -105.61051 | 15361 ft | 309 kts | 274° |
| 2026-04-26 12:07 | 31.57293 | -105.63554 | 14900 ft | 308 kts | 274° |
| 2026-04-26 12:08 | 31.57532 | -105.66041 | 14445 ft | 307 kts | 274° |
| 2026-04-26 12:08 | 31.57770 | -105.68527 | 13978 ft | 307 kts | 274° |
| 2026-04-26 12:08 | 31.58008 | -105.71009 | 13508 ft | 306 kts | 275° |
| 2026-04-26 12:08 | 31.58245 | -105.73489 | 13007 ft | 305 kts | 275° |
| 2026-04-26 12:09 | 31.58481 | -105.75960 | 12532 ft | 305 kts | 275° |
| 2026-04-26 12:09 | 31.58719 | -105.78424 | 12077 ft | 303 kts | 276° |
| 2026-04-26 12:09 | 31.59293 | -105.80798 | 11707 ft | 303 kts | 292° |
| 2026-04-26 12:09 | 31.60298 | -105.82979 | 11415 ft | 305 kts | 297° |
| 2026-04-26 12:10 | 31.61393 | -105.85126 | 11118 ft | 307 kts | 298° |
| 2026-04-26 12:10 | 31.62491 | -105.87251 | 10804 ft | 302 kts | 298° |
| 2026-04-26 12:10 | 31.63556 | -105.89333 | 10505 ft | 292 kts | 297° |
| 2026-04-26 12:10 | 31.64569 | -105.91328 | 10215 ft | 278 kts | 297° |
| 2026-04-26 12:11 | 31.65533 | -105.93241 | 9946 ft | 267 kts | 297° |
| 2026-04-26 12:11 | 31.66461 | -105.95091 | 9700 ft | 261 kts | 297° |
| 2026-04-26 12:11 | 31.67372 | -105.96917 | 9430 ft | 259 kts | 297° |
| 2026-04-26 12:11 | 31.68276 | -105.98730 | 9177 ft | 256 kts | 297° |
| 2026-04-26 12:12 | 31.69173 | -106.00527 | 8929 ft | 253 kts | 297° |
| 2026-04-26 12:12 | 31.70059 | -106.02304 | 8693 ft | 251 kts | 296° |
| 2026-04-26 12:12 | 31.70933 | -106.04057 | 8448 ft | 245 kts | 296° |
| 2026-04-26 12:12 | 31.71496 | -106.05185 | 8291 ft | 239 kts | 296° |
| 2026-04-26 12:13 | 31.72579 | -106.07354 | 7999 ft | 226 kts | 296° |
| 2026-04-26 12:13 | 31.73331 | -106.08938 | 7815 ft | 219 kts | 291° |
| 2026-04-26 12:13 | 31.73902 | -106.10562 | 7681 ft | 213 kts | 288° |
| 2026-04-26 12:13 | 31.74438 | -106.12178 | 7496 ft | 213 kts | 288° |
| 2026-04-26 12:14 | 31.74980 | -106.13800 | 7324 ft | 214 kts | 288° |
| 2026-04-26 12:14 | 31.75528 | -106.15423 | 7161 ft | 210 kts | 288° |
| 2026-04-26 12:14 | 31.76058 | -106.16977 | 6991 ft | 199 kts | 288° |
| 2026-04-26 12:14 | 31.76560 | -106.18453 | 6737 ft | 188 kts | 288° |
| 2026-04-26 12:15 | 31.77027 | -106.19835 | 6526 ft | 176 kts | 287° |
| 2026-04-26 12:15 | 31.77458 | -106.21118 | 6335 ft | 162 kts | 287° |
| 2026-04-26 12:15 | 31.77872 | -106.22347 | 6155 ft | 162 kts | 287° |
| 2026-04-26 12:15 | 31.78287 | -106.23579 | 5954 ft | 162 kts | 287° |
| 2026-04-26 12:16 | 31.78702 | -106.24814 | 5762 ft | 163 kts | 288° |
| 2026-04-26 12:16 | 31.79120 | -106.26058 | 5575 ft | 164 kts | 288° |
| 2026-04-26 12:16 | 31.79495 | -106.27319 | 5438 ft | 162 kts | 281° |
| 2026-04-26 12:16 | 31.79668 | -106.28585 | 5240 ft | 152 kts | 274° |
| 2026-04-26 12:17 | 31.79753 | -106.29786 | 5056 ft | 145 kts | 272° |
| 2026-04-26 12:17 | 31.79812 | -106.30980 | 4879 ft | 149 kts | 271° |
| 2026-04-26 12:17 | 31.79870 | -106.32208 | 4663 ft | 152 kts | 272° |
| 2026-04-26 12:17 | 31.79936 | -106.33430 | 4412 ft | 151 kts | 271° |
| 2026-04-26 12:18 | 31.79993 | -106.34654 | 4178 ft | 149 kts | 271° |
| 2026-04-26 12:18 | 31.80061 | -106.35865 | 3990 ft | 148 kts | 269° |
| 2026-04-26 12:18 | 31.80113 | -106.37009 | 3945 ft | 122 kts | 274° |
| 2026-04-26 12:18 | 31.80148 | -106.37694 | 3947 ft | 52 kts | 273° |
| 2026-04-26 12:19 | 31.80163 | -106.38024 | 3947 ft | 21 kts | 272° |
| 2026-04-26 12:19 | 31.80109 | -106.38121 | 3946 ft | 13 kts | 195° |
| 2026-04-26 12:19 | 31.80022 | -106.38133 | 3946 ft | 12 kts | 199° |
| 2026-04-26 12:19 | 31.79992 | -106.38228 | 3946 ft | 16 kts | 270° |
| 2026-04-26 12:20 | 31.79992 | -106.38400 | 3946 ft | 25 kts | 270° |
| 2026-04-26 12:20 | 31.79991 | -106.38616 | 3946 ft | 26 kts | 269° |
| 2026-04-26 12:20 | 31.79990 | -106.38822 | 3946 ft | 24 kts | 270° |
| 2026-04-26 12:20 | 31.79989 | -106.39013 | 3946 ft | 22 kts | 269° |
| 2026-04-26 12:21 | 31.79980 | -106.39157 | 3946 ft | 15 kts | 244° |
| 2026-04-26 12:21 | 31.79947 | -106.39250 | 3946 ft | 12 kts | 247° |
| 2026-04-26 12:21 | 31.79932 | -106.39322 | 3946 ft | 7 kts | 282° |
| 2026-04-26 12:21 | 31.79961 | -106.39351 | 3946 ft | 5 kts | 332° |
| 2026-04-26 12:22 | 31.79979 | -106.39362 | 3946 ft | 1 kts | 332° |
| 2026-04-26 12:22 | 31.79982 | -106.39365 | 3946 ft | 0 kts | 332° |